createdAt,value
2023-05-18T00:01:22.684Z,100944.19
2023-05-18T00:03:54.793Z,100946.03
2023-05-18T00:06:25.608Z,100944.91
2023-05-18T00:08:54.816Z,100941.53
2023-05-18T00:11:23.657Z,100945.19
2023-05-18T00:13:52.686Z,100942.50
2023-05-18T00:16:21.736Z,100945.19
2023-05-18T00:18:54.920Z,100943.47
2023-05-18T00:21:23.765Z,100939.09
2023-05-18T00:23:52.934Z,100940.94
2023-05-18T00:26:22.366Z,100940.09
2023-05-18T00:28:54.172Z,100945.31
2023-05-18T00:31:22.996Z,100950.75
2023-05-18T00:33:52.128Z,100946.38
2023-05-18T00:36:20.889Z,100944.59
2023-05-18T00:38:50.294Z,100939.25
2023-05-18T00:41:18.998Z,100938.38
2023-05-18T00:43:48.103Z,100938.38
2023-05-18T00:46:17.011Z,100936.59
2023-05-18T00:48:46.630Z,100937.44
2023-05-18T00:51:15.593Z,100940.94
2023-05-18T00:53:44.824Z,100931.97
2023-05-18T00:56:13.662Z,100930.28
2023-05-18T00:58:42.929Z,100929.44
2023-05-18T01:01:11.819Z,100934.78
2023-05-18T01:03:41.690Z,100938.28
2023-05-18T01:06:13.158Z,100940.09
2023-05-18T01:08:43.543Z,100934.06
2023-05-18T01:11:45.910Z,100941.94
2023-05-18T01:14:19.063Z,100938.38
2023-05-18T01:17:11.076Z,100940.22
2023-05-18T01:19:52.656Z,100941.06
2023-05-18T01:22:50.952Z,100948.81
2023-05-18T01:25:41.194Z,100942.75
2023-05-18T01:28:16.590Z,100943.59
2023-05-18T01:30:45.706Z,100936.59
2023-05-18T01:33:14.769Z,100937.56
2023-05-18T01:35:48.569Z,100943.72
2023-05-18T01:38:18.802Z,100949.06
2023-05-18T01:40:59.180Z,100937.56
2023-05-18T01:43:35.969Z,100935.00
2023-05-18T01:46:18.140Z,100931.38
2023-05-18T01:48:51.250Z,100935.72
2023-05-18T01:51:21.192Z,100936.72
2023-05-18T01:53:53.801Z,100932.22
2023-05-18T01:56:22.883Z,100930.56
2023-05-18T01:58:51.603Z,100936.72
2023-05-18T02:01:23.060Z,100940.34
2023-05-18T02:03:51.968Z,100929.69
2023-05-18T02:06:20.958Z,100940.22
2023-05-18T02:08:49.599Z,100932.34
2023-05-18T02:11:18.783Z,100934.19
2023-05-18T02:13:47.399Z,100932.34
2023-05-18T02:16:17.512Z,100932.34
2023-05-18T02:18:46.406Z,100933.34
2023-05-18T02:21:16.804Z,100922.09
2023-05-18T02:23:45.342Z,100927.28
2023-05-18T02:26:16.410Z,100926.19
2023-05-18T02:28:45.101Z,100926.31
2023-05-18T02:31:14.027Z,100920.97
2023-05-18T02:33:42.586Z,100926.31
2023-05-18T02:36:13.208Z,100931.50
2023-05-18T02:38:44.534Z,100931.63
2023-05-18T02:41:13.956Z,100929.84
2023-05-18T02:43:42.552Z,100926.31
2023-05-18T02:46:11.375Z,100926.31
2023-05-18T02:48:39.927Z,100927.19
2023-05-18T02:51:08.859Z,100919.31
2023-05-18T02:53:37.412Z,100928.13
2023-05-18T02:56:12.598Z,100920.97
2023-05-18T02:59:04.156Z,100924.63
2023-05-18T03:01:37.993Z,100924.63
2023-05-18T03:04:07.095Z,100926.31
2023-05-18T03:06:39.355Z,100913.63
2023-05-18T03:09:07.900Z,100926.31
2023-05-18T03:11:42.317Z,100919.69
2023-05-18T03:14:11.944Z,100928.97
2023-05-18T03:16:41.088Z,100930.81
2023-05-18T03:19:16.538Z,100932.63
2023-05-18T03:21:45.658Z,100925.47
2023-05-18T03:24:14.865Z,100926.59
2023-05-18T03:26:45.498Z,100931.63
2023-05-18T03:29:14.088Z,100928.25
2023-05-18T03:31:44.070Z,100929.25
2023-05-18T03:34:14.425Z,100926.31
2023-05-18T03:36:47.734Z,100928.25
2023-05-18T03:39:16.869Z,100932.63
2023-05-18T03:41:45.727Z,100937.97
2023-05-18T03:44:14.403Z,100940.63
2023-05-18T03:46:44.099Z,100936.13
2023-05-18T03:49:12.795Z,100940.63
2023-05-18T03:51:44.243Z,100935.28
2023-05-18T03:54:12.808Z,100944.25
2023-05-18T03:56:42.288Z,100944.25
2023-05-18T03:59:10.762Z,100956.59
2023-05-18T04:01:42.594Z,100957.44
2023-05-18T04:04:18.702Z,100956.59
2023-05-18T04:06:49.658Z,100950.28
2023-05-18T04:09:19.422Z,100953.81
2023-05-18T04:11:48.218Z,100952.94
2023-05-18T04:14:17.667Z,100951.28
2023-05-18T04:16:47.581Z,100956.59
2023-05-18T04:19:16.262Z,100958.28
2023-05-18T04:21:47.878Z,100957.31
2023-05-18T04:24:16.625Z,100957.44
2023-05-18T04:26:45.508Z,100963.25
2023-05-18T04:29:14.078Z,100962.25
2023-05-18T04:31:46.718Z,100970.13
2023-05-18T04:34:18.159Z,100971.81
2023-05-18T04:36:48.288Z,100973.63
2023-05-18T04:39:18.434Z,100979.44
2023-05-18T04:41:47.269Z,100983.63
2023-05-18T04:44:18.511Z,100979.03
2023-05-18T04:46:47.611Z,100989.69
2023-05-18T04:49:16.806Z,100987.03
2023-05-18T04:51:47.210Z,100989.69
2023-05-18T04:54:16.411Z,100988.00
2023-05-18T04:56:47.694Z,101000.34
2023-05-18T04:59:16.345Z,101000.34
2023-05-18T05:01:45.609Z,100996.72
2023-05-18T05:04:14.197Z,101002.78
2023-05-18T05:06:43.447Z,100994.91
2023-05-18T05:09:14.343Z,101011.47
2023-05-18T05:11:43.216Z,101011.59
2023-05-18T05:14:11.899Z,101015.81
2023-05-18T05:16:40.728Z,101010.50
2023-05-18T05:19:09.291Z,101012.84
2023-05-18T05:21:38.221Z,101016.22
2023-05-18T05:24:08.685Z,101028.44
2023-05-18T05:26:38.490Z,101022.13
2023-05-18T05:29:09.470Z,101031.81
2023-05-18T05:31:38.451Z,101020.44
2023-05-18T05:34:07.008Z,101034.47
2023-05-18T05:36:36.331Z,101022.25
2023-05-18T05:39:04.943Z,101024.44
2023-05-18T05:41:34.752Z,101032.09
2023-05-18T05:44:03.475Z,101028.59
2023-05-18T05:46:32.401Z,101030.38
2023-05-18T05:49:02.913Z,101040.78
2023-05-18T05:51:31.792Z,101036.19
2023-05-18T05:54:00.613Z,101037.03
2023-05-18T05:56:29.412Z,101041.41
2023-05-18T05:58:58.144Z,101040.31
2023-05-18T06:01:27.785Z,101044.69
2023-05-18T06:03:56.524Z,101042.22
2023-05-18T06:06:25.879Z,101050.97
2023-05-18T06:08:54.252Z,101044.03
2023-05-18T06:11:23.949Z,101045.25
2023-05-18T06:13:52.717Z,101051.72
2023-05-18T06:16:21.849Z,101046.03
2023-05-18T06:18:50.580Z,101047.72
2023-05-18T06:21:19.852Z,101047.25
2023-05-18T06:23:48.898Z,101054.00
2023-05-18T06:26:33.593Z,101053.56
2023-05-18T06:29:11.332Z,101050.41
2023-05-18T06:32:08.209Z,101059.22
2023-05-18T06:34:40.291Z,101048.44
2023-05-18T06:37:09.415Z,101056.94
2023-05-18T06:39:38.199Z,101055.34
2023-05-18T06:42:07.568Z,101050.84
2023-05-18T06:44:36.215Z,101056.41
2023-05-18T06:47:11.872Z,101061.13
2023-05-18T06:49:40.586Z,101052.25
2023-05-18T06:52:10.570Z,101051.41
2023-05-18T06:54:39.598Z,101049.84
2023-05-18T06:57:08.681Z,101051.81
2023-05-18T06:59:37.163Z,101055.69
2023-05-18T07:02:07.214Z,101044.81
2023-05-18T07:04:36.227Z,101057.41
2023-05-18T07:07:05.230Z,101052.44
2023-05-18T07:09:33.657Z,101049.50
2023-05-18T07:12:02.449Z,101052.94
2023-05-18T07:14:30.860Z,101046.75
2023-05-18T07:16:59.874Z,101049.88
2023-05-18T07:19:28.540Z,101047.56
2023-05-18T07:21:59.748Z,101047.91
2023-05-18T07:24:28.231Z,101043.78
2023-05-18T07:26:58.292Z,101047.16
2023-05-18T07:29:29.465Z,101040.84
2023-05-18T07:31:58.248Z,101048.44
2023-05-18T07:34:27.567Z,101046.09
2023-05-18T07:36:56.397Z,101046.72
2023-05-18T07:39:28.958Z,101040.53
2023-05-18T07:41:57.751Z,101045.06
2023-05-18T07:44:26.262Z,101044.69
2023-05-18T07:46:55.025Z,101041.03
2023-05-18T07:49:23.623Z,101050.75
2023-05-18T07:51:52.745Z,101051.06
2023-05-18T07:54:21.278Z,101046.56
2023-05-18T07:56:50.657Z,101044.91
2023-05-18T07:59:19.009Z,101045.66
2023-05-18T08:01:49.444Z,101040.31
2023-05-18T08:04:17.957Z,101036.06
2023-05-18T08:06:47.424Z,101041.41
2023-05-18T08:09:15.995Z,101030.38
2023-05-18T08:11:45.373Z,101031.69
2023-05-18T08:14:13.827Z,101033.56
2023-05-18T08:16:42.665Z,101031.38
2023-05-18T08:19:11.161Z,101036.19
2023-05-18T08:21:40.096Z,101034.75
2023-05-18T08:24:09.602Z,101030.38
2023-05-18T08:26:38.529Z,101026.97
2023-05-18T08:29:10.542Z,101035.16
2023-05-18T08:31:40.220Z,101031.53
2023-05-18T08:34:08.897Z,101027.75
2023-05-18T08:36:37.720Z,101020.28
2023-05-18T08:39:06.297Z,101022.56
2023-05-18T08:42:19.481Z,101030.56
2023-05-18T08:44:59.055Z,101018.75
2023-05-18T08:47:30.966Z,101024.59
2023-05-18T08:49:59.419Z,101024.19
2023-05-18T08:52:28.499Z,101018.69
2023-05-18T08:54:57.047Z,101020.44
2023-05-18T08:57:26.563Z,101023.09
2023-05-18T08:59:55.084Z,101016.25
2023-05-18T09:02:23.886Z,101022.31
2023-05-18T09:04:52.377Z,101016.06
2023-05-18T09:07:21.635Z,101018.25
2023-05-18T09:09:50.101Z,101018.75
2023-05-18T09:12:19.505Z,101026.22
2023-05-18T09:14:47.908Z,101023.56
2023-05-18T09:17:16.761Z,101018.53
2023-05-18T09:19:45.460Z,101016.25
2023-05-18T09:22:15.384Z,101029.84
2023-05-18T09:24:43.893Z,101021.31
2023-05-18T09:27:12.688Z,101013.44
2023-05-18T09:29:58.012Z,101026.22
2023-05-18T09:32:27.092Z,101018.94
2023-05-18T09:34:55.726Z,101023.88
2023-05-18T09:37:24.517Z,101030.69
2023-05-18T09:40:08.227Z,101034.28
2023-05-18T09:42:41.736Z,101026.69
2023-05-18T09:45:24.003Z,101028.34
2023-05-18T09:47:53.352Z,101029.94
2023-05-18T09:50:25.161Z,101043.59
2023-05-18T09:52:53.948Z,101040.09
2023-05-18T09:55:22.418Z,101047.09
2023-05-18T09:57:51.290Z,101053.84
2023-05-18T10:00:21.768Z,101040.84
2023-05-18T10:02:53.412Z,101049.03
2023-05-18T10:05:35.520Z,101052.56
2023-05-18T10:08:05.834Z,101050.38
2023-05-18T10:10:38.276Z,101056.84
2023-05-18T10:13:07.053Z,101049.03
2023-05-18T10:15:36.017Z,101042.63
2023-05-18T10:18:05.237Z,101041.69
2023-05-18T10:20:33.780Z,101042.38
2023-05-18T10:23:03.922Z,101038.56
2023-05-18T10:25:32.512Z,101049.03
2023-05-18T10:28:05.166Z,101034.66
2023-05-18T10:30:34.976Z,101041.50
2023-05-18T10:33:06.965Z,101045.66
2023-05-18T10:35:40.112Z,101041.16
2023-05-18T10:38:08.857Z,101034.16
2023-05-18T10:40:37.461Z,101032.31
2023-05-18T10:43:06.574Z,101028.88
2023-05-18T10:45:35.256Z,101022.63
2023-05-18T10:48:05.921Z,101032.22
2023-05-18T10:50:34.423Z,101026.41
2023-05-18T10:53:03.486Z,101019.53
2023-05-18T10:55:31.921Z,101022.13
2023-05-18T10:58:07.763Z,101023.19
2023-05-18T11:00:36.423Z,101011.19
2023-05-18T11:03:08.242Z,101020.94
2023-05-18T11:05:36.997Z,101015.94
2023-05-18T11:08:06.069Z,101027.25
2023-05-18T11:10:47.529Z,101020.88
2023-05-18T11:13:16.337Z,101012.19
2023-05-18T11:15:54.097Z,101011.84
2023-05-18T11:18:39.869Z,101030.97
2023-05-18T11:21:36.412Z,101029.97
2023-05-18T11:24:31.632Z,101021.13
2023-05-18T11:27:15.388Z,101027.31
2023-05-18T11:29:55.483Z,101015.28
2023-05-18T11:32:34.304Z,101023.28
2023-05-18T11:35:05.994Z,101019.25
2023-05-18T11:37:40.401Z,101005.53
2023-05-18T11:40:13.982Z,101016.81
2023-05-18T11:42:42.513Z,101024.09
2023-05-18T11:45:12.828Z,101012.19
2023-05-18T11:47:41.823Z,101010.97
2023-05-18T11:50:14.956Z,101013.19
2023-05-18T11:52:48.022Z,101015.44
2023-05-18T11:55:18.365Z,101017.75
2023-05-18T11:57:50.425Z,101009.03
2023-05-18T12:00:20.181Z,100999.19
2023-05-18T12:02:49.360Z,101001.16
2023-05-18T12:05:18.810Z,101008.63
2023-05-18T12:10:30.701Z,101016.09
2023-05-18T12:12:59.662Z,101008.00
2023-05-18T12:15:29.211Z,101013.06
2023-05-18T12:17:59.463Z,101001.09
2023-05-18T12:20:29.754Z,101005.38
2023-05-18T12:22:58.569Z,101011.03
2023-05-18T12:25:28.208Z,101004.97
2023-05-18T12:27:57.377Z,101001.16
2023-05-18T12:30:35.935Z,101007.06
2023-05-18T12:33:05.197Z,101013.06
2023-05-18T12:35:34.551Z,101013.84
2023-05-18T12:38:03.407Z,101011.66
2023-05-18T12:40:46.702Z,101002.78
2023-05-18T12:43:15.517Z,101007.84
2023-05-18T12:45:45.187Z,100991.59
2023-05-18T12:48:15.258Z,101002.78
2023-05-18T12:50:49.031Z,100994.97
2023-05-18T12:53:18.169Z,100996.34
2023-05-18T12:55:59.978Z,101003.75
2023-05-18T12:58:28.610Z,100994.53
2023-05-18T13:00:57.518Z,100991.06
2023-05-18T13:03:26.170Z,100995.88
2023-05-18T13:06:08.920Z,100992.91
2023-05-18T13:08:37.837Z,100993.88
2023-05-18T13:11:14.108Z,100998.06
2023-05-18T13:14:06.654Z,100988.56
2023-05-18T13:16:39.110Z,100982.13
2023-05-18T13:19:11.660Z,100985.09
2023-05-18T13:21:40.620Z,100975.69
2023-05-18T13:24:09.517Z,100977.66
2023-05-18T13:26:38.718Z,100975.00
2023-05-18T13:29:08.844Z,100979.94
2023-05-18T13:31:38.135Z,100972.50
2023-05-18T13:34:06.996Z,100975.47
2023-05-18T13:36:36.914Z,100974.34
2023-05-18T13:39:07.640Z,100974.22
2023-05-18T13:41:36.840Z,100965.25
2023-05-18T13:44:05.690Z,100956.84
2023-05-18T13:46:38.328Z,100966.84
2023-05-18T13:49:07.366Z,100964.03
2023-05-18T13:51:36.536Z,100960.94
2023-05-18T13:54:05.951Z,100958.66
2023-05-18T13:56:35.172Z,100956.16
2023-05-18T13:59:03.968Z,100956.72
2023-05-18T14:01:33.128Z,100945.75
2023-05-18T14:04:01.957Z,100940.28
2023-05-18T14:06:32.267Z,100942.69
2023-05-18T14:09:01.091Z,100941.13
2023-05-18T14:11:30.270Z,100945.50
2023-05-18T14:13:59.008Z,100934.25
2023-05-18T14:16:28.892Z,100938.75
2023-05-18T14:18:57.723Z,100934.53
2023-05-18T14:21:26.857Z,100923.41
2023-05-18T14:23:55.747Z,100931.56
2023-05-18T14:26:24.922Z,100923.59
2023-05-18T14:28:53.745Z,100924.97
2023-05-18T14:31:22.936Z,100917.09
2023-05-18T14:33:51.755Z,100922.16
2023-05-18T14:36:22.120Z,100919.94
2023-05-18T14:38:51.283Z,100911.06
2023-05-18T14:41:22.202Z,100912.75
2023-05-18T14:43:53.541Z,100915.31
2023-05-18T14:46:22.739Z,100907.13
2023-05-18T14:48:51.592Z,100909.25
2023-05-18T14:51:20.842Z,100907.44
2023-05-18T14:53:49.753Z,100907.56
2023-05-18T14:56:19.048Z,100915.00
2023-05-18T14:58:47.793Z,100905.31
2023-05-18T15:01:16.963Z,100912.78
2023-05-18T15:03:45.976Z,100909.53
2023-05-18T15:06:15.230Z,100914.75
2023-05-18T15:08:45.711Z,100917.09
2023-05-18T15:11:14.853Z,100915.56
2023-05-18T15:13:44.327Z,100915.56
2023-05-18T15:16:15.014Z,100915.72
2023-05-18T15:18:44.036Z,100921.34
2023-05-18T15:21:13.211Z,100923.16
2023-05-18T15:23:41.947Z,100918.53
2023-05-18T15:26:11.067Z,100925.56
2023-05-18T15:28:41.285Z,100921.22
2023-05-18T15:31:10.516Z,100916.00
2023-05-18T15:33:42.687Z,100918.25
2023-05-18T15:36:11.832Z,100915.69
2023-05-18T15:38:41.262Z,100918.25
2023-05-18T15:41:10.544Z,100914.03
2023-05-18T15:43:40.424Z,100913.19
2023-05-18T15:46:09.672Z,100908.69
2023-05-18T15:48:38.643Z,100912.31
2023-05-18T15:51:07.861Z,100906.72
2023-05-18T15:53:36.651Z,100903.06
2023-05-18T15:56:06.275Z,100904.19
2023-05-18T15:58:35.108Z,100905.88
2023-05-18T16:01:04.416Z,100899.69
2023-05-18T16:03:33.373Z,100896.88
2023-05-18T16:06:02.662Z,100897.88
2023-05-18T16:08:32.232Z,100903.50
2023-05-18T16:11:02.524Z,100902.22
2023-05-18T16:13:31.264Z,100907.69
2023-05-18T16:16:00.830Z,100902.34
2023-05-18T16:18:29.634Z,100903.06
2023-05-18T16:20:59.011Z,100901.38
2023-05-18T16:23:27.910Z,100910.34
2023-05-18T16:25:57.731Z,100914.03
2023-05-18T16:28:26.725Z,100911.75
2023-05-18T16:30:55.979Z,100911.75
2023-05-18T16:33:25.904Z,100915.28
2023-05-18T16:35:58.714Z,100909.25
2023-05-18T16:38:27.586Z,100909.50
2023-05-18T16:40:56.795Z,100920.91
2023-05-18T16:43:25.627Z,100919.50
2023-05-18T16:45:54.926Z,100929.47
2023-05-18T16:48:23.943Z,100925.25
2023-05-18T16:50:53.081Z,100926.78
2023-05-18T16:53:21.883Z,100932.00
2023-05-18T16:55:51.078Z,100924.84
2023-05-18T16:58:21.419Z,100938.03
2023-05-18T17:00:50.522Z,100937.34
2023-05-18T17:03:19.562Z,100931.88
2023-05-18T17:05:49.070Z,100929.19
2023-05-18T17:08:17.918Z,100938.75
2023-05-18T17:10:47.046Z,100933.69
2023-05-18T17:13:16.057Z,100939.00
2023-05-18T17:15:45.208Z,100952.53
2023-05-18T17:18:14.040Z,100944.50
2023-05-18T17:20:43.429Z,100947.44
2023-05-18T17:23:17.597Z,100952.78
2023-05-18T17:25:48.444Z,100951.38
2023-05-18T17:28:19.122Z,100952.97
2023-05-18T17:30:48.276Z,100961.25
2023-05-18T17:33:16.943Z,100949.59
2023-05-18T17:35:46.092Z,100954.53
2023-05-18T17:38:17.372Z,100956.06
2023-05-18T17:40:46.442Z,100953.75
2023-05-18T17:43:15.320Z,100959.34
2023-05-18T17:45:44.421Z,100960.50
2023-05-18T17:48:13.262Z,100957.72
2023-05-18T17:50:42.604Z,100959.94
2023-05-18T17:53:12.044Z,100959.66
2023-05-18T17:55:41.823Z,100961.59
2023-05-18T17:58:10.342Z,100955.13
2023-05-18T18:00:39.613Z,100951.19
2023-05-18T18:03:08.533Z,100960.19
2023-05-18T18:05:37.757Z,100954.59
2023-05-18T18:08:06.738Z,100965.28
2023-05-18T18:10:35.964Z,100967.22
2023-05-18T18:13:04.693Z,100972.28
2023-05-18T18:15:33.784Z,100976.53
2023-05-18T18:18:02.683Z,100972.84
2023-05-18T18:20:36.808Z,100974.56
2023-05-18T18:23:06.226Z,100980.16
2023-05-18T18:25:35.361Z,100979.06
2023-05-18T18:28:03.780Z,100974.56
2023-05-18T18:30:33.277Z,100981.72
2023-05-18T18:33:02.332Z,100984.53
2023-05-18T18:35:31.959Z,100976.53
2023-05-18T18:38:00.726Z,100982.69
2023-05-18T18:40:30.675Z,100981.53
2023-05-18T18:42:59.757Z,100980.28
2023-05-18T18:45:31.117Z,100987.31
2023-05-18T18:48:00.304Z,100989.00
2023-05-18T18:50:29.644Z,100998.00
2023-05-18T18:52:58.465Z,101000.66
2023-05-18T18:55:27.563Z,100998.13
2023-05-18T18:57:58.887Z,101005.41
2023-05-18T19:00:27.785Z,100999.50
2023-05-18T19:02:56.382Z,101004.00
2023-05-18T19:05:25.506Z,101005.38
2023-05-18T19:07:56.015Z,101014.63
2023-05-18T19:10:26.368Z,101013.66
2023-05-18T19:12:55.275Z,101021.50
2023-05-18T19:15:24.345Z,101022.38
2023-05-18T19:17:54.170Z,101025.75
2023-05-18T19:20:23.330Z,101025.75
2023-05-18T19:22:53.724Z,101034.31
2023-05-18T19:25:26.547Z,101038.22
2023-05-18T19:27:55.322Z,101038.63
2023-05-18T19:30:24.510Z,101039.88
2023-05-18T19:32:53.607Z,101039.56
2023-05-18T19:35:25.962Z,101043.19
2023-05-18T19:37:54.524Z,101041.94
2023-05-18T19:40:27.324Z,101051.50
2023-05-18T19:42:56.372Z,101036.59
2023-05-18T19:45:26.703Z,101048.31
2023-05-18T19:47:55.724Z,101052.94
2023-05-18T19:50:24.784Z,101053.66
2023-05-18T19:52:53.308Z,101048.44
2023-05-18T19:55:22.771Z,101059.13
2023-05-18T19:57:51.523Z,101060.94
2023-05-18T20:00:20.595Z,101048.81
2023-05-18T20:02:49.801Z,101053.91
2023-05-18T20:05:19.097Z,101056.47
2023-05-18T20:07:48.070Z,101066.53
2023-05-18T20:10:18.813Z,101070.03
2023-05-18T20:12:47.408Z,101071.16
2023-05-18T20:15:16.791Z,101070.44
2023-05-18T20:17:45.476Z,101070.16
2023-05-18T20:20:14.599Z,101070.44
2023-05-18T20:22:43.092Z,101079.75
2023-05-18T20:25:13.153Z,101070.38
2023-05-18T20:27:41.874Z,101071.81
2023-05-18T20:30:11.037Z,101082.91
2023-05-18T20:32:39.559Z,101071.53
2023-05-18T20:35:08.516Z,101077.31
2023-05-18T20:37:37.977Z,101083.38
2023-05-18T20:40:09.747Z,101071.16
2023-05-18T20:42:40.909Z,101084.91
2023-05-18T20:45:10.557Z,101074.53
2023-05-18T20:47:42.067Z,101078.50
2023-05-18T20:50:11.490Z,101084.66
2023-05-18T20:52:40.085Z,101078.50
2023-05-18T20:55:09.482Z,101081.00
2023-05-18T20:57:41.208Z,101070.34
2023-05-18T21:00:12.270Z,101077.63
2023-05-18T21:02:45.596Z,101080.88
2023-05-18T21:05:15.111Z,101080.03
2023-05-18T21:07:44.051Z,101080.88
2023-05-18T21:10:13.328Z,101087.06
2023-05-18T21:12:41.989Z,101081.72
2023-05-18T21:15:11.368Z,101082.72
2023-05-18T21:17:39.884Z,101086.09
2023-05-18T21:20:10.142Z,101087.06
2023-05-18T21:22:38.644Z,101087.94
2023-05-18T21:25:08.055Z,101092.28
2023-05-18T21:27:37.499Z,101097.59
2023-05-18T21:30:07.583Z,101093.97
2023-05-18T21:32:36.452Z,101097.59
2023-05-18T21:35:06.202Z,101093.97
2023-05-18T21:37:34.792Z,101093.09
2023-05-18T21:40:03.789Z,101095.66
2023-05-18T21:42:33.623Z,101093.09
2023-05-18T21:45:02.493Z,101088.63
2023-05-18T21:47:31.516Z,101089.47
2023-05-18T21:50:00.693Z,101089.59
2023-05-18T21:52:29.314Z,101083.31
2023-05-18T21:54:58.231Z,101084.13
2023-05-18T21:57:26.788Z,101088.50
2023-05-18T21:59:55.768Z,101095.66
2023-05-18T22:02:24.385Z,101089.47
2023-05-18T22:04:53.667Z,101086.94
2023-05-18T22:07:22.273Z,101093.97
2023-05-18T22:09:53.505Z,101094.81
2023-05-18T22:12:22.195Z,101086.22
2023-05-18T22:14:51.128Z,101086.81
2023-05-18T22:17:19.932Z,101083.31
2023-05-18T22:19:49.414Z,101084.25
2023-05-18T22:22:29.196Z,101082.59
2023-05-18T22:24:58.991Z,101088.63
2023-05-18T22:27:27.633Z,101095.66
2023-05-18T22:29:57.538Z,101092.97
2023-05-18T22:32:26.339Z,101090.31
2023-05-18T22:34:56.269Z,101097.34
2023-05-18T22:37:24.907Z,101093.97
2023-05-18T22:39:54.048Z,101088.06
2023-05-18T22:42:22.637Z,101096.66
2023-05-18T22:44:51.763Z,101091.31
2023-05-18T22:47:23.803Z,101094.81
2023-05-18T22:49:52.920Z,101093.97
2023-05-18T22:52:21.476Z,101103.66
2023-05-18T22:54:50.786Z,101095.66
2023-05-18T22:57:19.383Z,101100.16
2023-05-18T22:59:48.344Z,101097.47
2023-05-18T23:02:16.996Z,101090.31
2023-05-18T23:04:46.016Z,101098.31
2023-05-18T23:07:14.522Z,101090.31
2023-05-18T23:09:43.381Z,101092.03
2023-05-18T23:12:11.881Z,101085.25
2023-05-18T23:14:40.728Z,101083.31
2023-05-18T23:17:09.267Z,101080.50
2023-05-18T23:19:38.730Z,101080.75
2023-05-18T23:22:07.253Z,101084.13
2023-05-18T23:24:36.439Z,101084.00
2023-05-18T23:27:05.073Z,101074.31
2023-05-18T23:29:33.859Z,101087.66
2023-05-18T23:32:03.611Z,101092.03
2023-05-18T23:34:32.870Z,101092.03
2023-05-18T23:37:10.840Z,101076.97
2023-05-18T23:39:44.120Z,101077.09
2023-05-18T23:42:12.961Z,101085.84
2023-05-18T23:44:42.315Z,101089.34
2023-05-18T23:47:11.654Z,101080.50
2023-05-18T23:49:40.866Z,101077.09
2023-05-18T23:52:10.742Z,101078.81
2023-05-18T23:54:40.788Z,101072.88
2023-05-18T23:57:10.260Z,101076.00
2023-05-18T23:59:39.229Z,101088.63
